Time;durP1;ratioP1;P1;durP2;ratioP2;P2;SDS_P1;SDS_P2;PMS_P1;PMS_P2;Temp;Humidity;BMP_temperature;BMP_pressure;BME280_temperature;BME280_humidity;BME280_pressure;Samples;Min_cycle;Max_cycle;Signal;HPM_P1;HPM_P2
2023/07/19 00:00:38;;;;;;;1.80;1.70;;;22.80;74.40;;;;;;5013500;28;20025;-78
2023/07/19 00:03:03;;;;;;;2.10;1.73;;;22.70;74.60;;;;;;5014696;28;20133;-77
2023/07/19 00:05:29;;;;;;;1.80;1.70;;;22.70;74.70;;;;;;5014702;28;20550;-76
2023/07/19 00:07:56;;;;;;;1.67;1.58;;;22.70;74.70;;;;;;5013745;28;20489;-77
2023/07/19 00:10:21;;;;;;;1.40;1.30;;;22.70;74.70;;;;;;5027912;28;20064;-75
2023/07/19 00:12:47;;;;;;;1.40;1.30;;;22.70;74.70;;;;;;5013908;28;20073;-77
2023/07/19 00:15:13;;;;;;;1.60;1.50;;;22.70;74.70;;;;;;5012668;28;20120;-77
2023/07/19 00:17:38;;;;;;;1.80;1.70;;;22.70;74.70;;;;;;5014106;28;20026;-77
2023/07/19 00:20:05;;;;;;;1.40;1.33;;;22.70;74.70;;;;;;5023530;28;20021;-77
2023/07/19 00:22:32;;;;;;;1.98;1.88;;;22.70;74.80;;;;;;5028790;28;20061;-77
2023/07/19 00:24:57;;;;;;;2.22;2.03;;;22.60;75.10;;;;;;5015794;28;20029;-77
2023/07/19 00:27:24;;;;;;;2.03;1.92;;;22.50;75.30;;;;;;5013978;28;20022;-76
2023/07/19 00:29:50;;;;;;;2.10;1.90;;;22.50;75.80;;;;;;5017638;28;20486;-78
2023/07/19 00:32:16;;;;;;;2.50;2.30;;;22.40;76.20;;;;;;5027972;28;20113;-77
2023/07/19 00:34:41;;;;;;;2.30;2.10;;;22.40;76.70;;;;;;5014211;28;20113;-77
2023/07/19 00:37:07;;;;;;;2.40;2.20;;;22.40;76.90;;;;;;5015278;28;20479;-77
2023/07/19 00:39:33;;;;;;;2.40;2.20;;;22.40;77.10;;;;;;5015433;28;20021;-77
2023/07/19 00:41:59;;;;;;;2.00;1.90;;;22.30;77.20;;;;;;5019787;28;20114;-76
2023/07/19 00:44:25;;;;;;;2.20;2.10;;;22.30;77.40;;;;;;5014344;28;20120;-77
2023/07/19 00:46:50;;;;;;;1.90;1.80;;;22.30;77.70;;;;;;5017081;28;20053;-78
2023/07/19 00:49:17;;;;;;;1.92;1.73;;;22.30;77.80;;;;;;5017012;28;20030;-75
2023/07/19 00:51:42;;;;;;;1.83;1.73;;;22.30;77.90;;;;;;5016657;28;20095;-77
2023/07/19 00:54:08;;;;;;;1.65;1.55;;;22.30;78.00;;;;;;5015753;28;20517;-77
2023/07/19 00:56:35;;;;;;;2.03;1.85;;;22.30;78.10;;;;;;5015746;28;20018;-77
2023/07/19 00:59:02;;;;;;;1.60;1.50;;;22.20;78.20;;;;;;5017069;28;20395;-78
2023/07/19 01:01:28;;;;;;;1.90;1.80;;;22.20;78.40;;;;;;5015311;28;20434;-77
2023/07/19 01:03:54;;;;;;;1.70;1.60;;;22.20;78.60;;;;;;5013679;28;20030;-77
2023/07/19 01:06:19;;;;;;;2.05;1.85;;;22.10;78.80;;;;;;5015273;28;20121;-76
2023/07/19 01:08:49;;;;;;;2.05;1.95;;;22.10;79.00;;;;;;5016541;28;20038;-78
2023/07/19 01:11:14;;;;;;;2.38;2.20;;;22.10;79.30;;;;;;5013812;28;20463;-76
2023/07/19 01:13:54;;;;;;;2.60;2.40;;;22.10;79.70;;;;;;5015092;28;20064;-78
2023/07/19 01:16:20;;;;;;;3.05;2.42;;;22.00;80.20;;;;;;5027580;28;20022;-76
2023/07/19 01:18:46;;;;;;;2.60;2.40;;;22.00;80.70;;;;;;5032862;28;20036;-76
2023/07/19 01:21:12;;;;;;;3.58;3.20;;;21.90;81.10;;;;;;5023968;28;20024;-78
2023/07/19 01:23:38;;;;;;;4.00;3.15;;;21.80;81.70;;;;;;5033997;28;20435;-77
2023/07/19 01:26:04;;;;;;;3.03;2.72;;;21.70;82.20;;;;;;5018841;28;20022;-77
2023/07/19 01:28:30;;;;;;;3.75;2.80;;;21.70;82.80;;;;;;5015297;28;20387;-77
2023/07/19 01:30:55;;;;;;;3.30;3.00;;;21.60;83.00;;;;;;5013061;28;20584;-77
2023/07/19 01:33:21;;;;;;;4.10;3.08;;;21.60;83.30;;;;;;5014944;28;20080;-78
2023/07/19 01:35:46;;;;;;;3.38;2.75;;;21.60;83.80;;;;;;5017827;28;20033;-76
2023/07/19 01:38:12;;;;;;;3.33;2.63;;;21.50;84.20;;;;;;5032360;28;20104;-76
2023/07/19 01:40:38;;;;;;;3.47;2.60;;;21.40;84.50;;;;;;5033461;28;20455;-77
2023/07/19 01:43:03;;;;;;;4.50;3.03;;;21.30;84.80;;;;;;5033550;28;20485;-76
2023/07/19 01:45:29;;;;;;;2.92;2.67;;;21.20;85.10;;;;;;5032785;28;20105;-77
2023/07/19 01:47:55;;;;;;;3.88;2.70;;;21.20;85.50;;;;;;5031720;28;20093;-77
2023/07/19 01:50:20;;;;;;;2.85;2.33;;;21.10;85.80;;;;;;5033145;28;20040;-76
2023/07/19 01:52:46;;;;;;;2.80;2.55;;;21.00;86.30;;;;;;5031207;28;20021;-76
2023/07/19 01:55:12;;;;;;;2.67;2.42;;;20.90;86.80;;;;;;5016496;28;20026;-75
2023/07/19 01:57:37;;;;;;;2.85;2.42;;;20.90;87.20;;;;;;5014174;28;20455;-75
2023/07/19 02:00:04;;;;;;;2.80;2.47;;;20.80;87.50;;;;;;5014627;28;20030;-77
2023/07/19 02:02:29;;;;;;;2.53;2.28;;;20.80;87.90;;;;;;5012779;28;20030;-77
2023/07/19 02:04:55;;;;;;;2.55;2.35;;;20.70;88.20;;;;;;5019263;28;20065;-78
2023/07/19 02:07:21;;;;;;;2.20;2.00;;;20.70;88.50;;;;;;5032256;28;20029;-77
2023/07/19 02:09:47;;;;;;;3.05;2.10;;;20.70;88.50;;;;;;5031177;28;20113;-77
2023/07/19 02:12:12;;;;;;;2.47;2.28;;;20.70;88.80;;;;;;5033117;28;20021;-75
2023/07/19 02:14:38;;;;;;;3.05;2.25;;;20.70;89.00;;;;;;5029089;28;20055;-76
2023/07/19 02:17:04;;;;;;;3.75;2.35;;;20.70;89.30;;;;;;5019019;28;20026;-76
2023/07/19 02:19:30;;;;;;;4.20;2.83;;;20.70;89.60;;;;;;5016361;28;20026;-77
2023/07/19 02:21:56;;;;;;;2.63;2.25;;;20.70;89.80;;;;;;5013685;28;20045;-76
2023/07/19 02:24:22;;;;;;;4.15;2.78;;;20.70;90.00;;;;;;5017315;28;20065;-76
2023/07/19 02:26:47;;;;;;;3.03;2.70;;;20.70;90.00;;;;;;5016248;28;20109;-77
2023/07/19 02:29:13;;;;;;;7.65;2.67;;;20.70;90.10;;;;;;5016101;28;20033;-77
2023/07/19 02:31:39;;;;;;;2.17;1.98;;;20.70;90.20;;;;;;5015481;28;20026;-77
2023/07/19 02:34:06;;;;;;;3.15;2.35;;;20.70;90.30;;;;;;5016538;28;20044;-77
2023/07/19 02:36:34;;;;;;;2.97;2.42;;;20.60;90.40;;;;;;5016813;28;20070;-77
2023/07/19 02:39:01;;;;;;;2.58;2.30;;;20.60;90.60;;;;;;5016237;28;20375;-76
2023/07/19 02:41:26;;;;;;;7.60;2.97;;;20.60;90.70;;;;;;5016529;28;20488;-76
2023/07/19 02:43:52;;;;;;;4.72;3.30;;;20.60;90.90;;;;;;5015309;28;20067;-78
2023/07/19 02:46:18;;;;;;;3.70;2.65;;;20.50;91.00;;;;;;5017791;28;20048;-77
2023/07/19 02:48:43;;;;;;;3.10;2.80;;;20.50;91.30;;;;;;5016102;28;20080;-77
2023/07/19 02:51:09;;;;;;;2.40;2.20;;;20.40;91.50;;;;;;5016808;28;20395;-77
2023/07/19 02:53:35;;;;;;;3.47;3.08;;;20.40;91.80;;;;;;5016097;28;20053;-75
2023/07/19 02:56:01;;;;;;;3.58;2.65;;;20.30;92.00;;;;;;5016301;28;20100;-76
2023/07/19 02:58:27;;;;;;;2.30;2.10;;;20.30;92.30;;;;;;5015588;28;20058;-77
2023/07/19 03:00:53;;;;;;;2.53;2.08;;;20.30;92.50;;;;;;5016180;28;20368;-77
2023/07/19 03:03:19;;;;;;;2.65;2.45;;;20.20;92.80;;;;;;5014692;28;20072;-77
2023/07/19 03:05:45;;;;;;;3.08;2.60;;;20.20;93.00;;;;;;5017329;28;20041;-76
2023/07/19 03:08:11;;;;;;;2.58;2.10;;;20.10;93.30;;;;;;5016009;28;20029;-77
2023/07/19 03:10:38;;;;;;;3.15;2.40;;;20.10;93.50;;;;;;5016232;28;20026;-77
2023/07/19 03:13:04;;;;;;;2.83;2.53;;;20.10;93.60;;;;;;5021055;28;20026;-77
2023/07/19 03:15:33;;;;;;;3.53;2.33;;;20.10;93.80;;;;;;5021474;28;20018;-76
2023/07/19 03:18:03;;;;;;;5.05;2.50;;;20.00;94.00;;;;;;5032559;28;20022;-76
2023/07/19 03:20:29;;;;;;;2.83;2.50;;;20.00;94.30;;;;;;5020763;28;20037;-76
2023/07/19 03:22:55;;;;;;;5.25;2.90;;;20.00;94.60;;;;;;5020257;28;20033;-76
2023/07/19 03:25:22;;;;;;;4.07;2.60;;;19.90;94.70;;;;;;5015619;28;20117;-76
2023/07/19 03:27:48;;;;;;;3.28;2.70;;;19.90;95.10;;;;;;5021350;28;20474;-75
2023/07/19 03:30:14;;;;;;;2.85;2.50;;;19.80;95.30;;;;;;5016136;28;20032;-75
2023/07/19 03:32:40;;;;;;;2.40;2.20;;;19.80;95.50;;;;;;5020042;28;20026;-75
2023/07/19 03:35:06;;;;;;;3.53;2.78;;;19.80;95.80;;;;;;5022469;28;20034;-74
2023/07/19 03:37:34;;;;;;;2.47;2.25;;;19.70;95.90;;;;;;5037118;28;20144;-76
2023/07/19 03:40:00;;;;;;;3.03;2.65;;;19.70;96.00;;;;;;5032699;28;20014;-77
2023/07/19 03:42:26;;;;;;;2.33;1.90;;;19.70;96.20;;;;;;5017351;28;20033;-77
2023/07/19 03:44:51;;;;;;;2.17;1.98;;;19.70;96.40;;;;;;5019495;28;20032;-76
2023/07/19 03:47:17;;;;;;;2.40;1.95;;;19.70;96.50;;;;;;5016356;28;20029;-77
2023/07/19 03:49:43;;;;;;;3.25;2.25;;;19.80;96.60;;;;;;5016623;28;20022;-77
2023/07/19 03:52:09;;;;;;;2.33;1.90;;;19.80;96.60;;;;;;5017298;28;20029;-77
2023/07/19 03:54:34;;;;;;;3.67;2.72;;;19.90;96.50;;;;;;5017813;28;20033;-77
2023/07/19 03:57:01;;;;;;;5.03;2.97;;;19.90;96.60;;;;;;5016267;28;20490;-78
2023/07/19 03:59:26;;;;;;;3.38;3.08;;;19.90;96.60;;;;;;5015088;28;20105;-77
2023/07/19 04:01:52;;;;;;;2.90;2.60;;;20.00;96.60;;;;;;5015895;28;20466;-76
2023/07/19 04:04:18;;;;;;;2.53;2.33;;;20.00;96.60;;;;;;5018557;28;20064;-76
2023/07/19 04:06:43;;;;;;;2.53;2.33;;;20.00;96.50;;;;;;5034983;28;20026;-77
2023/07/19 04:09:09;;;;;;;2.30;2.10;;;20.00;96.40;;;;;;5033517;28;20033;-76
2023/07/19 04:11:35;;;;;;;2.10;1.90;;;20.10;96.40;;;;;;5036560;28;20081;-77
2023/07/19 04:14:01;;;;;;;2.15;2.03;;;20.10;96.50;;;;;;5049579;28;20029;-77
2023/07/19 04:16:26;;;;;;;2.58;1.98;;;20.10;96.50;;;;;;5035224;28;20442;-76
2023/07/19 04:18:52;;;;;;;2.22;2.03;;;20.10;96.50;;;;;;5031356;28;20010;-76
2023/07/19 04:21:19;;;;;;;1.67;1.58;;;20.20;96.50;;;;;;5029371;28;20499;-76
2023/07/19 04:23:44;;;;;;;2.20;2.00;;;20.20;96.50;;;;;;5037595;28;20089;-76
2023/07/19 04:26:10;;;;;;;2.92;2.42;;;20.20;96.60;;;;;;5016102;28;20454;-76
2023/07/19 04:28:35;;;;;;;3.13;2.63;;;20.30;96.50;;;;;;5015767;28;20356;-75
2023/07/19 04:31:01;;;;;;;2.80;2.13;;;20.40;96.40;;;;;;5015217;28;20033;-75
2023/07/19 04:33:27;;;;;;;2.72;2.20;;;20.40;96.30;;;;;;5016751;28;20057;-76
2023/07/19 04:35:52;;;;;;;2.70;2.47;;;20.50;96.20;;;;;;5034017;28;20021;-76
2023/07/19 04:38:18;;;;;;;2.72;2.47;;;20.40;96.20;;;;;;5016835;28;20060;-77
2023/07/19 04:40:44;;;;;;;2.63;2.40;;;20.50;96.20;;;;;;5016785;28;20022;-77
2023/07/19 04:43:10;;;;;;;3.53;2.80;;;20.50;96.10;;;;;;5016115;28;20026;-77
2023/07/19 04:45:35;;;;;;;2.78;2.30;;;20.50;96.20;;;;;;5031034;28;20514;-76
2023/07/19 04:48:03;;;;;;;3.38;2.97;;;20.50;96.20;;;;;;5016487;28;20160;-77
2023/07/19 04:50:29;;;;;;;2.60;2.40;;;20.50;96.20;;;;;;5015208;28;20025;-76
2023/07/19 04:52:54;;;;;;;5.97;2.75;;;20.60;96.10;;;;;;5016182;28;20037;-77
2023/07/19 04:55:21;;;;;;;5.40;2.85;;;20.60;96.00;;;;;;5016189;28;20084;-76
2023/07/19 04:57:46;;;;;;;3.00;2.72;;;20.70;96.00;;;;;;5015225;28;20113;-76
2023/07/19 05:00:14;;;;;;;3.65;2.95;;;20.80;95.80;;;;;;5015432;28;20076;-77
2023/07/19 05:02:40;;;;;;;3.05;2.70;;;20.80;95.70;;;;;;5023875;28;20075;-77
2023/07/19 05:05:06;;;;;;;4.05;2.80;;;20.90;95.60;;;;;;5014471;28;20104;-75
2023/07/19 05:07:36;;;;;;;4.47;3.10;;;21.00;95.40;;;;;;5013257;28;20029;-75
2023/07/19 05:10:03;;;;;;;3.42;2.78;;;21.10;95.20;;;;;;5014773;28;20491;-78
2023/07/19 05:12:29;;;;;;;4.43;2.72;;;21.20;95.10;;;;;;5018459;28;20052;-77
2023/07/19 05:14:56;;;;;;;4.07;2.75;;;21.50;94.70;;;;;;5033252;28;20095;-77
2023/07/19 05:17:21;;;;;;;3.17;2.75;;;21.80;94.40;;;;;;5033258;28;20029;-76
2023/07/19 05:19:47;;;;;;;3.15;2.70;;;22.80;93.60;;;;;;5034156;28;20339;-77
2023/07/19 05:22:13;;;;;;;2.97;2.50;;;;;;;;;;5032339;28;20110;-77
2023/07/19 05:24:39;;;;;;;2.95;2.30;;;;;;;;;;5014404;28;20025;-78
2023/07/19 05:27:05;;;;;;;2.40;2.20;;;27.50;78.40;;;;;;5014169;28;20032;-77
2023/07/19 05:29:32;;;;;;;2.63;2.30;;;28.40;73.70;;;;;;5013690;28;20084;-78
2023/07/19 05:31:58;;;;;;;2.60;2.40;;;29.10;69.80;;;;;;5013792;28;20041;-77
2023/07/19 05:34:23;;;;;;;2.63;2.42;;;29.50;67.20;;;;;;5013579;28;20029;-76
2023/07/19 05:36:49;;;;;;;2.55;2.35;;;29.50;64.90;;;;;;5013592;28;20026;-76
2023/07/19 05:39:15;;;;;;;2.45;2.25;;;28.80;65.40;;;;;;5012729;28;20387;-76
2023/07/19 05:41:40;;;;;;;2.60;2.40;;;28.50;66.90;;;;;;5011301;28;20113;-78
2023/07/19 05:44:06;;;;;;;2.33;2.13;;;29.30;66.60;;;;;;5011591;28;20111;-77
2023/07/19 05:46:36;;;;;;;2.28;2.10;;;30.20;64.00;;;;;;5013884;28;20034;-79
2023/07/19 05:49:02;;;;;;;2.60;2.17;;;30.80;61.80;;;;;;5016648;28;20030;-80
2023/07/19 05:51:28;;;;;;;2.50;2.25;;;30.70;60.20;;;;;;5019091;28;20025;-80
2023/07/19 05:53:54;;;;;;;2.40;2.20;;;30.10;61.00;;;;;;5024101;28;20029;-82
2023/07/19 05:56:20;;;;;;;2.40;2.20;;;30.10;61.30;;;;;;5018625;28;20026;-80
2023/07/19 05:58:46;;;;;;;2.53;2.33;;;30.70;61.40;;;;;;5009612;28;20033;-78
2023/07/19 06:01:17;;;;;;;3.40;2.35;;;31.50;59.70;;;;;;5019629;28;20034;-78
2023/07/19 06:03:46;;;;;;;2.30;2.20;;;32.00;57.80;;;;;;5019694;28;20481;-79
2023/07/19 06:06:12;;;;;;;2.28;1.80;;;32.60;56.70;;;;;;5027230;28;20037;-77
2023/07/19 06:08:40;;;;;;;2.22;2.08;;;33.10;55.40;;;;;;5019673;28;20522;-78
2023/07/19 06:11:06;;;;;;;2.10;1.90;;;32.80;55.00;;;;;;5014009;28;20022;-83
2023/07/19 06:13:32;;;;;;;2.72;1.90;;;31.90;55.20;;;;;;5015874;28;20075;-80
2023/07/19 06:15:58;;;;;;;2.17;2.08;;;30.40;57.90;;;;;;5036096;28;20092;-82
2023/07/19 06:18:24;;;;;;;2.55;2.33;;;30.00;60.20;;;;;;5041500;28;20025;-81
2023/07/19 06:20:50;;;;;;;2.03;1.88;;;29.70;61.70;;;;;;5040638;28;20101;-81
2023/07/19 06:23:15;;;;;;;1.80;1.70;;;30.40;61.20;;;;;;5039194;28;20105;-81
2023/07/19 06:25:42;;;;;;;1.73;1.63;;;31.10;59.40;;;;;;5028096;28;20165;-81
2023/07/19 06:28:08;;;;;;;2.35;2.00;;;;;;;;;;5019349;28;20022;-81
2023/07/19 06:30:34;;;;;;;3.08;2.28;;;;;;;;;;5019610;28;20368;-82
2023/07/19 06:33:00;;;;;;;2.55;2.20;;;32.20;57.50;;;;;;5020139;28;20068;-82
2023/07/19 06:35:25;;;;;;;2.53;2.33;;;32.60;57.40;;;;;;5020008;28;20022;-79
2023/07/19 06:37:51;;;;;;;2.38;2.17;;;33.30;55.10;;;;;;5019420;28;20105;-80
2023/07/19 06:40:17;;;;;;;2.67;2.47;;;33.10;54.50;;;;;;5023205;28;20034;-79
2023/07/19 06:42:43;;;;;;;3.40;2.67;;;33.50;54.50;;;;;;5025386;28;20053;-79
2023/07/19 06:45:09;;;;;;;3.20;2.90;;;33.90;53.20;;;;;;5018742;28;20088;-80
2023/07/19 06:47:35;;;;;;;4.55;3.58;;;34.20;52.70;;;;;;5019568;28;20117;-80
2023/07/19 06:50:01;;;;;;;4.00;3.55;;;34.50;51.70;;;;;;5020617;28;20030;-80
2023/07/19 06:52:27;;;;;;;3.80;3.13;;;34.50;51.20;;;;;;5019341;28;20036;-81
2023/07/19 06:54:53;;;;;;;5.13;4.53;;;33.10;52.20;;;;;;5018573;28;20180;-80
2023/07/19 06:57:22;;;;;;;4.28;3.60;;;31.40;54.80;;;;;;5020396;28;20056;-81
2023/07/19 06:59:51;;;;;;;6.05;3.63;;;29.90;58.00;;;;;;5019871;28;20113;-79
2023/07/19 07:02:19;;;;;;;6.03;4.07;;;28.90;60.20;;;;;;5023498;28;20061;-79
2023/07/19 07:04:46;;;;;;;4.72;3.60;;;29.00;62.00;;;;;;5022288;28;20642;-79
2023/07/19 07:07:14;;;;;;;9.13;4.20;;;30.00;60.90;;;;;;5035249;28;20051;-78
2023/07/19 07:09:41;;;;;;;5.57;4.32;;;30.90;57.90;;;;;;5032569;28;20030;-78
2023/07/19 07:12:07;;;;;;;4.28;3.75;;;;;;;;;;5024601;28;20034;-79
2023/07/19 07:14:33;;;;;;;5.82;4.10;;;;;;;;;;5025259;28;20035;-79
2023/07/19 07:17:00;;;;;;;5.35;3.88;;;;;;;;;;5042381;28;20083;-82
2023/07/19 07:19:26;;;;;;;3.95;3.65;;;;;;;;;;5045035;28;20096;-80
2023/07/19 07:21:51;;;;;;;4.38;3.97;;;28.80;61.30;;;;;;5028099;28;20018;-80
2023/07/19 07:24:17;;;;;;;9.85;5.30;;;28.40;62.20;;;;;;5021713;28;20439;-80
2023/07/19 07:26:43;;;;;;;6.57;4.82;;;27.90;63.30;;;;;;5025211;28;20029;-81
2023/07/19 07:29:09;;;;;;;7.38;4.85;;;27.40;65.20;;;;;;5025482;28;20088;-79
2023/07/19 07:31:35;;;;;;;15.15;5.70;;;27.10;66.30;;;;;;5025959;28;20082;-79
2023/07/19 07:34:01;;;;;;;10.90;5.13;;;26.80;67.00;;;;;;5023369;28;20069;-81
2023/07/19 07:36:26;;;;;;;9.07;5.15;;;26.60;68.00;;;;;;5029402;28;20037;-78
2023/07/19 07:38:52;;;;;;;6.88;4.53;;;26.30;68.70;;;;;;5031589;28;20026;-79
2023/07/19 07:41:18;;;;;;;10.88;5.82;;;26.20;68.80;;;;;;5029053;28;20172;-80
2023/07/19 07:43:43;;;;;;;8.80;5.38;;;26.10;68.40;;;;;;5030314;28;20026;-79
2023/07/19 07:46:09;;;;;;;6.85;4.88;;;26.00;67.90;;;;;;5028099;28;20486;-77
2023/07/19 07:48:35;;;;;;;5.90;5.22;;;26.00;68.10;;;;;;5031510;28;20093;-78
2023/07/19 07:51:00;;;;;;;8.50;5.38;;;26.00;68.20;;;;;;5040559;28;20030;-80
2023/07/19 07:53:26;;;;;;;4.15;3.72;;;26.00;68.30;;;;;;5019053;28;20124;-77
2023/07/19 07:55:52;;;;;;;8.45;5.15;;;26.00;68.10;;;;;;5021843;28;20117;-78
2023/07/19 07:58:18;;;;;;;5.68;4.18;;;26.10;67.90;;;;;;5026992;28;20041;-78
2023/07/19 08:00:45;;;;;;;6.20;4.25;;;26.10;67.60;;;;;;5044230;28;20068;-79
2023/07/19 08:03:11;;;;;;;7.05;4.60;;;26.10;66.80;;;;;;5039430;28;20066;-80
2023/07/19 08:05:38;;;;;;;6.57;4.20;;;26.20;65.70;;;;;;5034059;28;20041;-80
2023/07/19 08:08:05;;;;;;;7.68;4.22;;;26.30;65.60;;;;;;5034610;28;20026;-80
2023/07/19 08:10:40;;;;;;;5.07;3.85;;;26.40;65.20;;;;;;5033582;28;20022;-79
2023/07/19 08:13:10;;;;;;;5.47;3.53;;;26.50;64.80;;;;;;5042887;28;20030;-79
2023/07/19 08:15:36;;;;;;;4.85;3.88;;;26.60;63.70;;;;;;5053493;28;20025;-79
2023/07/19 08:18:02;;;;;;;5.85;4.10;;;26.80;62.90;;;;;;5049830;28;20015;-79
2023/07/19 08:20:28;;;;;;;6.00;4.57;;;26.90;61.80;;;;;;5052398;28;20033;-79
2023/07/19 08:22:53;;;;;;;5.90;3.90;;;26.90;61.10;;;;;;5044717;28;20006;-80
2023/07/19 08:25:20;;;;;;;6.18;4.00;;;27.00;60.00;;;;;;5037395;28;20119;-80
2023/07/19 08:27:46;;;;;;;5.10;3.67;;;27.00;57.10;;;;;;5030269;28;20040;-82
2023/07/19 08:30:15;;;;;;;5.78;4.20;;;27.00;57.60;;;;;;5034855;28;20103;-80
2023/07/19 08:32:45;;;;;;;7.97;4.40;;;27.00;58.20;;;;;;5021154;28;20030;-79
2023/07/19 08:35:12;;;;;;;4.18;3.65;;;27.10;58.40;;;;;;5020129;28;20430;-79
2023/07/19 08:37:38;;;;;;;6.13;3.78;;;27.20;58.60;;;;;;5018951;28;20025;-78
2023/07/19 08:40:04;;;;;;;7.25;4.07;;;27.40;58.10;;;;;;5018021;28;20026;-79
2023/07/19 08:42:30;;;;;;;10.48;4.05;;;27.40;57.90;;;;;;5021446;28;20037;-80
2023/07/19 08:44:56;;;;;;;11.15;4.18;;;27.50;57.10;;;;;;5021390;28;20476;-78
2023/07/19 08:47:22;;;;;;;7.55;4.30;;;27.50;57.20;;;;;;5020959;28;20034;-79
2023/07/19 08:49:49;;;;;;;5.13;3.92;;;27.60;56.60;;;;;;5019855;28;20096;-79
2023/07/19 08:52:16;;;;;;;8.30;4.45;;;27.70;56.70;;;;;;5021180;28;20061;-78
2023/07/19 08:54:41;;;;;;;7.88;3.97;;;27.90;56.60;;;;;;5036157;28;20034;-78
2023/07/19 08:57:07;;;;;;;5.88;4.50;;;28.00;56.00;;;;;;5025432;28;20032;-80
2023/07/19 08:59:34;;;;;;;5.18;4.28;;;28.20;55.40;;;;;;5025222;28;20049;-80
2023/07/19 09:02:00;;;;;;;4.65;3.70;;;28.40;54.00;;;;;;5019198;28;20376;-80
2023/07/19 09:04:26;;;;;;;4.78;3.80;;;28.40;53.60;;;;;;5019824;28;20510;-79
2023/07/19 09:06:52;;;;;;;5.25;3.63;;;28.60;53.40;;;;;;5024677;28;20022;-78
2023/07/19 09:09:18;;;;;;;4.32;3.80;;;28.70;53.10;;;;;;5038844;28;20053;-80
2023/07/19 09:11:50;;;;;;;4.55;3.78;;;29.00;53.40;;;;;;5033184;28;20029;-79
2023/07/19 09:14:16;;;;;;;5.93;3.70;;;29.30;53.10;;;;;;5018676;28;20036;-79
2023/07/19 09:16:42;;;;;;;7.95;4.13;;;29.50;51.20;;;;;;5020604;28;20030;-79
2023/07/19 09:19:08;;;;;;;6.50;4.55;;;29.40;51.50;;;;;;5029736;28;20048;-78
2023/07/19 09:21:45;;;;;;;4.10;3.70;;;29.40;50.70;;;;;;5039954;28;20033;-78
2023/07/19 09:24:11;;;;;;;8.13;4.15;;;29.50;51.20;;;;;;5021981;28;20037;-78
2023/07/19 09:26:57;;;;;;;5.75;4.30;;;29.50;51.10;;;;;;5028178;28;20038;-78
2023/07/19 09:29:27;;;;;;;9.30;4.85;;;29.10;51.40;;;;;;5006740;28;20562;-79
2023/07/19 09:31:56;;;;;;;6.55;4.13;;;28.80;51.60;;;;;;5019018;28;20105;-78
2023/07/19 09:34:33;;;;;;;6.60;4.45;;;28.40;52.60;;;;;;5030777;28;20056;-78
2023/07/19 09:37:00;;;;;;;5.85;4.05;;;28.30;52.70;;;;;;5021508;28;20041;-78
2023/07/19 09:39:26;;;;;;;5.45;4.72;;;28.00;53.50;;;;;;5030388;28;20417;-80
2023/07/19 09:41:53;;;;;;;9.35;4.90;;;27.90;54.00;;;;;;5033325;28;20017;-78
2023/07/19 09:44:18;;;;;;;6.35;4.90;;;28.10;53.80;;;;;;5020491;28;20049;-79
2023/07/19 09:46:45;;;;;;;5.00;4.25;;;28.30;54.10;;;;;;5027854;28;20025;-78
2023/07/19 09:49:12;;;;;;;6.40;4.05;;;28.30;53.80;;;;;;5040033;28;20390;-80
2023/07/19 09:51:42;;;;;;;4.13;3.65;;;28.60;52.60;;;;;;5023659;28;20040;-80
2023/07/19 09:54:12;;;;;;;7.18;4.32;;;28.70;52.10;;;;;;5036579;28;20022;-78
2023/07/19 09:56:38;;;;;;;5.80;4.80;;;28.80;51.70;;;;;;5025637;28;20110;-79
2023/07/19 09:59:13;;;;;;;4.78;4.32;;;28.90;51.90;;;;;;5027110;28;20034;-78
2023/07/19 10:01:40;;;;;;;4.90;4.20;;;28.90;51.50;;;;;;5030530;28;20041;-79
2023/07/19 10:04:24;;;;;;;7.78;4.55;;;28.60;51.70;;;;;;5023383;28;20048;-79
2023/07/19 10:07:08;;;;;;;6.85;3.72;;;28.50;51.90;;;;;;5035294;28;20045;-79
2023/07/19 10:09:41;;;;;;;6.85;4.25;;;28.60;52.20;;;;;;5037639;28;20349;-79
2023/07/19 10:12:20;;;;;;;6.63;3.97;;;28.70;51.20;;;;;;5032982;28;20025;-79
2023/07/19 10:15:06;;;;;;;5.40;3.78;;;28.80;50.30;;;;;;5018673;28;20030;-77
2023/07/19 10:17:56;;;;;;;4.50;3.90;;;28.80;49.90;;;;;;5020071;28;20022;-77
2023/07/19 10:20:34;;;;;;;5.47;4.38;;;28.90;50.30;;;;;;5023049;28;20053;-80
2023/07/19 10:23:03;;;;;;;4.07;3.67;;;28.90;49.70;;;;;;5038643;28;20025;-78
2023/07/19 10:25:38;;;;;;;6.80;4.25;;;28.90;50.20;;;;;;5018794;28;20080;-79
2023/07/19 10:28:10;;;;;;;8.13;4.32;;;29.10;50.00;;;;;;5021578;28;20033;-78
2023/07/19 10:30:47;;;;;;;6.38;4.43;;;29.20;49.60;;;;;;5024841;28;20054;-79
2023/07/19 10:33:24;;;;;;;5.10;3.80;;;29.40;49.60;;;;;;5035054;28;20037;-80
2023/07/19 10:36:06;;;;;;;4.35;3.67;;;29.50;49.30;;;;;;5035713;28;20032;-80
2023/07/19 10:38:32;;;;;;;4.88;4.38;;;29.70;48.70;;;;;;5042669;28;20048;-79
2023/07/19 10:41:00;;;;;;;3.80;3.47;;;29.90;47.60;;;;;;5028076;28;20026;-80
2023/07/19 10:43:28;;;;;;;4.85;4.35;;;29.90;47.70;;;;;;5041433;28;20040;-79
2023/07/19 10:45:55;;;;;;;5.15;3.47;;;30.00;47.70;;;;;;5040951;28;20029;-80
2023/07/19 10:48:26;;;;;;;5.05;4.20;;;30.20;47.70;;;;;;5023656;28;20502;-80
2023/07/19 10:50:56;;;;;;;4.80;4.30;;;;;;;;;;5033136;28;20014;-78
2023/07/19 10:53:21;;;;;;;5.35;3.80;;;30.30;45.40;;;;;;5031369;28;20069;-79
2023/07/19 10:55:47;;;;;;;6.57;4.07;;;30.40;46.50;;;;;;5026144;28;20022;-79
2023/07/19 10:58:14;;;;;;;6.75;4.43;;;30.60;46.40;;;;;;5017059;28;20030;-80
2023/07/19 11:00:43;;;;;;;3.72;3.40;;;30.70;46.50;;;;;;5022695;28;20052;-78
2023/07/19 11:03:13;;;;;;;6.80;4.03;;;30.90;46.50;;;;;;5023868;28;20026;-80
2023/07/19 11:05:43;;;;;;;4.70;4.20;;;31.10;46.00;;;;;;5021114;28;20033;-79
2023/07/19 11:08:09;;;;;;;4.20;3.45;;;31.00;45.60;;;;;;5021328;28;20363;-79
2023/07/19 11:10:35;;;;;;;4.32;3.95;;;31.00;45.30;;;;;;5023460;28;20093;-80
2023/07/19 11:13:02;;;;;;;7.47;3.92;;;30.80;45.00;;;;;;5030853;28;20098;-79
2023/07/19 11:15:27;;;;;;;4.20;3.67;;;30.80;45.50;;;;;;5038886;28;20033;-79
2023/07/19 11:17:57;;;;;;;5.55;3.85;;;30.90;44.90;;;;;;5024327;28;20022;-80
2023/07/19 11:20:32;;;;;;;7.10;3.70;;;30.90;45.00;;;;;;5041253;28;20359;-80
2023/07/19 11:23:07;;;;;;;4.50;3.78;;;30.80;44.40;;;;;;5041925;28;20099;-79
2023/07/19 11:25:34;;;;;;;4.60;3.58;;;30.60;45.10;;;;;;5016585;28;20021;-78
2023/07/19 11:28:00;;;;;;;4.95;4.00;;;30.40;44.70;;;;;;5027168;28;20486;-79
2023/07/19 11:30:39;;;;;;;6.40;3.85;;;30.40;44.60;;;;;;5035174;28;20140;-79
2023/07/19 11:33:06;;;;;;;5.95;3.60;;;30.40;44.70;;;;;;5027978;28;20029;-80
2023/07/19 11:35:33;;;;;;;5.03;3.60;;;30.60;44.80;;;;;;5028177;28;20033;-81
2023/07/19 11:37:58;;;;;;;4.97;3.55;;;30.80;44.60;;;;;;5031809;28;20018;-80
2023/07/19 11:40:24;;;;;;;4.60;3.65;;;31.00;44.30;;;;;;5035927;28;20028;-78
2023/07/19 11:42:57;;;;;;;3.25;2.95;;;31.10;43.90;;;;;;5027901;28;20479;-78
2023/07/19 11:45:28;;;;;;;10.02;3.95;;;31.10;44.10;;;;;;5028582;28;20099;-80
2023/07/19 11:47:57;;;;;;;4.70;3.85;;;31.30;43.80;;;;;;5028875;28;20029;-80
2023/07/19 11:50:23;;;;;;;5.30;4.30;;;31.40;43.30;;;;;;5037508;28;20025;-80
2023/07/19 11:52:57;;;;;;;7.68;3.70;;;31.50;43.40;;;;;;5040080;28;20059;-79
2023/07/19 11:55:24;;;;;;;4.53;3.75;;;31.40;43.60;;;;;;5009851;28;20030;-79
2023/07/19 11:57:51;;;;;;;4.85;3.58;;;31.40;43.80;;;;;;5025289;28;20021;-80
2023/07/19 12:00:18;;;;;;;6.13;3.88;;;31.40;43.80;;;;;;5038620;28;20025;-79
2023/07/19 12:02:45;;;;;;;5.50;3.60;;;31.00;43.90;;;;;;5023402;28;20033;-79
2023/07/19 12:05:21;;;;;;;4.15;3.55;;;30.60;44.70;;;;;;5020415;28;20037;-80
2023/07/19 12:07:47;;;;;;;5.60;3.88;;;30.50;44.70;;;;;;5022797;28;20038;-80
2023/07/19 12:10:13;;;;;;;9.95;4.20;;;;;;;;;;5033878;28;20115;-79
2023/07/19 12:12:39;;;;;;;7.28;3.63;;;30.60;43.70;;;;;;5026107;28;20029;-79
2023/07/19 12:15:07;;;;;;;7.05;4.07;;;30.50;45.00;;;;;;5024119;28;20034;-78
2023/07/19 12:17:34;;;;;;;4.13;3.63;;;30.50;44.70;;;;;;5023995;28;20049;-79
2023/07/19 12:20:00;;;;;;;5.07;3.92;;;30.60;45.10;;;;;;5022105;28;20352;-80
2023/07/19 12:22:29;;;;;;;6.25;3.78;;;30.90;44.80;;;;;;5034042;28;20025;-78
2023/07/19 12:24:58;;;;;;;4.22;3.10;;;31.00;44.40;;;;;;5027447;28;20502;-78
2023/07/19 12:27:24;;;;;;;4.22;3.75;;;31.00;44.50;;;;;;5030330;28;20084;-77
2023/07/19 12:29:49;;;;;;;3.80;3.35;;;30.90;44.50;;;;;;5029826;28;20025;-78
2023/07/19 12:32:16;;;;;;;5.30;3.88;;;30.90;44.90;;;;;;5028406;28;20091;-80
2023/07/19 12:34:44;;;;;;;5.35;3.28;;;31.00;44.60;;;;;;5027412;28;20062;-78
2023/07/19 12:37:10;;;;;;;5.20;3.80;;;31.00;43.90;;;;;;5025669;28;20026;-78
2023/07/19 12:39:36;;;;;;;4.85;3.53;;;30.70;44.70;;;;;;5021955;28;20018;-79
2023/07/19 12:42:03;;;;;;;3.70;3.22;;;30.90;44.80;;;;;;5030555;28;20062;-79
2023/07/19 12:44:29;;;;;;;6.05;3.63;;;31.10;44.70;;;;;;5023440;28;20035;-77
2023/07/19 12:46:54;;;;;;;4.65;3.80;;;31.20;44.00;;;;;;5024397;28;20092;-78
2023/07/19 12:49:20;;;;;;;4.25;3.70;;;31.20;44.30;;;;;;5035385;28;20094;-76